createdAt,value
2022-10-31T00:00:37.529Z,48.32
2022-10-31T00:01:38.449Z,52.57
2022-10-31T00:02:37.522Z,50.42
2022-10-31T00:03:37.425Z,52.74
2022-10-31T00:04:37.423Z,52.00
2022-10-31T00:05:37.406Z,48.88
2022-10-31T00:06:37.412Z,56.27
2022-10-31T00:07:37.389Z,48.99
2022-10-31T00:08:37.386Z,47.66
2022-10-31T00:09:37.388Z,53.43
2022-10-31T00:10:37.367Z,52.23
2022-10-31T00:11:37.370Z,42.87
2022-10-31T00:12:37.350Z,47.24
2022-10-31T00:13:37.348Z,60.21
2022-10-31T00:14:37.342Z,52.94
2022-10-31T00:15:37.335Z,51.97
2022-10-31T00:16:37.335Z,50.27
2022-10-31T00:17:37.318Z,50.36
2022-10-31T00:18:37.303Z,55.19
2022-10-31T00:19:37.342Z,49.16
2022-10-31T00:20:37.290Z,56.92
2022-10-31T00:21:37.284Z,48.85
2022-10-31T00:22:37.320Z,54.44
2022-10-31T00:23:37.262Z,52.87
2022-10-31T00:24:37.268Z,57.68
2022-10-31T00:25:37.248Z,47.25
2022-10-31T00:26:37.241Z,50.16
2022-10-31T00:27:37.270Z,44.38
2022-10-31T00:30:36.945Z,52.58
2022-10-31T00:31:36.942Z,49.06
2022-10-31T00:32:36.935Z,48.31
2022-10-31T00:33:38.014Z,42.62
2022-10-31T00:34:38.019Z,42.13
2022-10-31T00:35:38.008Z,42.35
2022-10-31T00:36:37.995Z,42.88
2022-10-31T00:37:37.992Z,47.43
2022-10-31T00:38:37.979Z,43.53
2022-10-31T00:39:37.986Z,47.57
2022-10-31T00:40:37.985Z,53.39
2022-10-31T00:41:37.951Z,50.01
2022-10-31T00:42:37.956Z,41.94
2022-10-31T00:43:37.937Z,49.11
2022-10-31T00:44:37.933Z,53.32
2022-10-31T00:45:37.921Z,54.66
2022-10-31T00:46:37.915Z,48.85
2022-10-31T00:47:37.929Z,52.63
2022-10-31T00:48:37.896Z,46.36
2022-10-31T00:49:37.901Z,47.16
2022-10-31T00:50:37.882Z,45.00
2022-10-31T00:51:37.874Z,49.90
2022-10-31T00:52:37.861Z,51.69
2022-10-31T00:53:37.871Z,48.09
2022-10-31T00:54:37.858Z,48.65
2022-10-31T00:55:37.838Z,50.16
2022-10-31T00:56:37.828Z,49.95
2022-10-31T00:57:37.833Z,44.33
2022-10-31T00:58:37.826Z,52.18
2022-10-31T00:59:37.836Z,51.65
2022-10-31T01:00:37.804Z,54.98
2022-10-31T01:01:37.921Z,46.84
2022-10-31T01:02:37.993Z,46.89
2022-10-31T01:03:37.777Z,49.10
2022-10-31T01:04:37.766Z,46.58
2022-10-31T01:05:37.762Z,46.60
2022-10-31T01:06:37.749Z,58.23
2022-10-31T01:07:37.740Z,50.49
2022-10-31T01:08:37.741Z,51.48
2022-10-31T01:09:37.719Z,50.85
2022-10-31T01:10:37.740Z,51.35
2022-10-31T01:11:37.709Z,51.32
2022-10-31T01:12:37.699Z,47.48
2022-10-31T01:13:37.795Z,48.33
2022-10-31T01:14:37.681Z,47.32
2022-10-31T01:15:37.679Z,55.45
2022-10-31T01:16:37.665Z,49.46
2022-10-31T01:17:37.672Z,47.86
2022-10-31T01:18:37.654Z,49.51
2022-10-31T01:19:37.654Z,49.04
2022-10-31T01:20:37.633Z,49.95
2022-10-31T01:21:37.623Z,45.45
2022-10-31T01:22:37.622Z,50.10
2022-10-31T01:23:37.624Z,47.64
2022-10-31T01:24:37.601Z,47.16
2022-10-31T01:25:37.602Z,56.12
2022-10-31T01:26:37.603Z,49.86
2022-10-31T01:27:37.577Z,51.28
2022-10-31T01:28:37.582Z,49.30
2022-10-31T01:29:37.568Z,49.50
2022-10-31T01:30:37.557Z,54.77
2022-10-31T01:31:37.553Z,50.97
2022-10-31T01:32:37.544Z,49.30
2022-10-31T01:33:37.542Z,58.44
2022-10-31T01:34:37.531Z,47.67
2022-10-31T01:35:37.518Z,42.78
2022-10-31T01:36:37.511Z,55.05
2022-10-31T01:37:37.500Z,49.32
2022-10-31T01:38:37.496Z,50.25
2022-10-31T01:39:37.490Z,49.96
2022-10-31T01:40:37.478Z,56.78
2022-10-31T01:41:37.470Z,46.99
2022-10-31T01:42:37.461Z,45.27
2022-10-31T01:43:38.204Z,41.55
2022-10-31T01:44:37.460Z,48.37
2022-10-31T01:45:37.446Z,49.85
2022-10-31T01:46:37.437Z,48.24
2022-10-31T01:47:37.431Z,49.51
2022-10-31T01:48:37.412Z,55.05
2022-10-31T01:49:37.409Z,47.41
2022-10-31T01:50:38.122Z,53.97
2022-10-31T01:51:37.385Z,44.87
2022-10-31T01:52:37.384Z,53.17
2022-10-31T01:53:37.378Z,50.77
2022-10-31T01:54:37.365Z,55.49
2022-10-31T01:55:37.363Z,46.87
2022-10-31T01:56:37.366Z,41.69
2022-10-31T01:59:43.628Z,49.74
2022-10-31T02:00:43.648Z,45.72
2022-10-31T02:01:44.855Z,50.31
2022-10-31T02:02:45.522Z,46.87
2022-10-31T02:03:44.689Z,45.26
2022-10-31T02:04:44.677Z,48.57
2022-10-31T02:05:44.670Z,50.75
2022-10-31T02:06:44.664Z,55.37
2022-10-31T02:07:44.656Z,52.13
2022-10-31T02:08:44.643Z,50.38
2022-10-31T02:09:44.634Z,53.18
2022-10-31T02:10:45.489Z,54.69
2022-10-31T02:11:44.624Z,54.33
2022-10-31T02:12:44.610Z,51.71
2022-10-31T02:13:44.603Z,52.86
2022-10-31T02:14:44.597Z,46.26
2022-10-31T02:15:44.596Z,55.79
2022-10-31T02:16:44.577Z,51.25
2022-10-31T02:17:44.570Z,49.42
2022-10-31T02:18:44.570Z,51.25
2022-10-31T02:19:44.554Z,52.44
2022-10-31T02:20:44.544Z,49.26
2022-10-31T02:21:45.540Z,53.21
2022-10-31T02:22:44.533Z,49.06
2022-10-31T02:23:47.818Z,48.71
2022-10-31T02:24:45.550Z,45.70
2022-10-31T02:25:44.518Z,44.88
2022-10-31T02:26:44.504Z,48.32
2022-10-31T02:27:44.504Z,52.99
2022-10-31T02:28:44.487Z,44.56
2022-10-31T02:29:44.478Z,46.58
2022-10-31T02:30:44.483Z,47.06
2022-10-31T02:31:45.465Z,56.82
2022-10-31T02:32:44.449Z,44.92
2022-10-31T02:33:45.449Z,44.61
2022-10-31T02:34:44.443Z,52.87
2022-10-31T02:35:44.436Z,51.08
2022-10-31T02:36:44.439Z,50.72
2022-10-31T02:37:44.422Z,49.48
2022-10-31T02:38:44.414Z,42.98
2022-10-31T02:39:44.402Z,47.45
2022-10-31T02:40:44.398Z,47.24
2022-10-31T02:41:44.396Z,44.46
2022-10-31T02:42:44.384Z,48.86
2022-10-31T02:43:44.395Z,46.45
2022-10-31T02:44:44.369Z,54.11
2022-10-31T02:45:44.356Z,52.00
2022-10-31T02:46:44.362Z,43.13
2022-10-31T02:47:44.354Z,44.79
2022-10-31T02:48:44.366Z,46.75
2022-10-31T02:49:44.328Z,45.45
2022-10-31T02:50:44.328Z,46.69
2022-10-31T02:51:44.309Z,52.44
2022-10-31T02:52:44.302Z,52.27
2022-10-31T02:53:44.303Z,53.04
2022-10-31T02:54:44.295Z,51.60
2022-10-31T02:55:44.285Z,53.59
2022-10-31T02:56:44.274Z,53.24
2022-10-31T02:57:44.262Z,57.41
2022-10-31T02:58:44.266Z,57.36
2022-10-31T02:59:44.249Z,59.02
2022-10-31T03:00:45.916Z,54.03
2022-10-31T03:01:44.412Z,58.47
2022-10-31T03:02:44.321Z,57.12
2022-10-31T03:03:44.216Z,54.22
2022-10-31T03:04:44.223Z,55.38
2022-10-31T03:05:44.214Z,56.89
2022-10-31T03:06:45.110Z,54.86
2022-10-31T03:07:44.183Z,53.62
2022-10-31T03:08:44.178Z,45.91
2022-10-31T03:09:44.171Z,50.96
2022-10-31T03:10:44.162Z,58.06
2022-10-31T03:11:44.150Z,55.45
2022-10-31T03:12:47.708Z,53.60
2022-10-31T03:13:44.128Z,58.03
2022-10-31T03:14:44.147Z,50.85
2022-10-31T03:15:44.114Z,48.14
2022-10-31T03:16:44.112Z,55.88
2022-10-31T03:17:44.097Z,50.14
2022-10-31T03:18:44.096Z,52.88
2022-10-31T03:19:44.600Z,55.50
2022-10-31T03:20:44.579Z,53.24
2022-10-31T03:21:45.074Z,54.98
2022-10-31T03:22:44.062Z,46.16
2022-10-31T03:23:44.066Z,52.30
2022-10-31T03:24:44.061Z,57.57
2022-10-31T03:25:44.039Z,50.27
2022-10-31T03:26:44.032Z,52.68
2022-10-31T03:27:44.013Z,56.89
2022-10-31T03:28:45.021Z,57.46
2022-10-31T03:29:44.016Z,48.23
2022-10-31T03:30:43.995Z,55.71
2022-10-31T03:31:43.994Z,58.89
2022-10-31T03:32:44.580Z,52.46
2022-10-31T03:33:44.001Z,55.38
2022-10-31T03:34:43.960Z,54.07
2022-10-31T03:35:44.964Z,54.37
2022-10-31T03:36:43.957Z,50.92
2022-10-31T03:37:43.988Z,48.87
2022-10-31T03:38:43.940Z,50.68
2022-10-31T03:39:43.926Z,49.15
2022-10-31T03:40:43.940Z,56.00
2022-10-31T03:41:43.913Z,52.98
2022-10-31T03:42:43.911Z,59.06
2022-10-31T03:43:43.896Z,53.72
2022-10-31T03:44:43.888Z,53.79
2022-10-31T03:45:43.928Z,55.90
2022-10-31T03:46:43.875Z,57.81
2022-10-31T03:47:43.860Z,57.11
2022-10-31T03:48:43.850Z,60.68
2022-10-31T03:49:43.852Z,57.34
2022-10-31T03:50:43.843Z,50.26
2022-10-31T03:51:43.828Z,56.17
2022-10-31T03:52:43.852Z,59.62
2022-10-31T03:53:43.848Z,50.34
2022-10-31T03:54:43.814Z,59.72
2022-10-31T03:55:43.793Z,56.90
2022-10-31T03:56:43.785Z,57.20
2022-10-31T03:57:43.782Z,60.06
2022-10-31T03:58:44.511Z,57.37
2022-10-31T03:59:43.769Z,57.25
2022-10-31T04:00:43.761Z,60.17
2022-10-31T04:01:43.858Z,60.06
2022-10-31T04:02:43.864Z,59.64
2022-10-31T04:03:43.728Z,58.25
2022-10-31T04:04:43.721Z,55.68
2022-10-31T04:05:43.722Z,59.99
2022-10-31T04:06:43.714Z,49.89
2022-10-31T04:07:43.693Z,56.95
2022-10-31T04:08:43.689Z,57.55
2022-10-31T04:09:43.697Z,59.15
2022-10-31T04:10:43.689Z,62.38
2022-10-31T04:11:43.721Z,58.03
2022-10-31T04:12:43.657Z,62.13
2022-10-31T04:13:43.656Z,57.91
2022-10-31T04:14:43.647Z,58.13
2022-10-31T04:15:43.643Z,60.77
2022-10-31T04:16:43.641Z,57.79
2022-10-31T04:17:43.627Z,60.23
2022-10-31T04:18:43.607Z,57.49
2022-10-31T04:19:44.597Z,56.13
2022-10-31T04:20:43.591Z,58.95
2022-10-31T04:21:44.590Z,62.71
2022-10-31T04:22:43.574Z,58.18
2022-10-31T04:23:44.598Z,63.32
2022-10-31T04:24:43.570Z,63.06
2022-10-31T04:25:43.550Z,63.39
2022-10-31T04:26:43.555Z,62.80
2022-10-31T04:27:43.532Z,63.91
2022-10-31T04:28:43.554Z,59.60
2022-10-31T04:29:45.643Z,59.76
2022-10-31T04:30:44.521Z,62.95
2022-10-31T04:31:43.516Z,61.65
2022-10-31T04:32:44.104Z,64.30
2022-10-31T04:33:43.495Z,66.65
2022-10-31T04:34:44.477Z,66.93
2022-10-31T04:35:43.481Z,65.48
2022-10-31T04:36:43.465Z,63.96
2022-10-31T04:37:43.458Z,63.65
2022-10-31T04:38:43.449Z,65.30
2022-10-31T04:39:43.445Z,61.23
2022-10-31T04:40:43.443Z,64.33
2022-10-31T04:41:43.425Z,67.10
2022-10-31T04:42:43.414Z,64.87
2022-10-31T04:43:43.411Z,67.35
2022-10-31T04:44:43.405Z,59.08
2022-10-31T04:45:43.412Z,56.85
2022-10-31T04:46:43.388Z,58.85
2022-10-31T04:47:43.428Z,61.50
2022-10-31T04:48:44.095Z,62.03
2022-10-31T04:49:43.364Z,63.11
2022-10-31T04:50:43.369Z,62.64
2022-10-31T04:51:43.350Z,65.70
2022-10-31T04:52:43.337Z,61.63
2022-10-31T04:53:43.329Z,60.17
2022-10-31T04:54:43.326Z,63.09
2022-10-31T04:55:43.331Z,63.98
2022-10-31T04:56:43.316Z,62.31
2022-10-31T04:57:43.302Z,64.13
2022-10-31T04:58:43.291Z,63.65
2022-10-31T04:59:43.283Z,64.77
2022-10-31T05:00:43.326Z,62.70
2022-10-31T05:01:43.348Z,60.57
2022-10-31T05:02:44.528Z,59.92
2022-10-31T05:03:44.254Z,59.53
2022-10-31T05:04:43.254Z,63.78
2022-10-31T05:05:43.239Z,63.78
2022-10-31T05:06:43.239Z,63.57
2022-10-31T05:07:43.223Z,62.23
2022-10-31T05:08:43.213Z,60.27
2022-10-31T05:09:43.201Z,62.07
2022-10-31T05:10:43.193Z,61.38
2022-10-31T05:11:43.195Z,61.60
2022-10-31T05:12:43.192Z,60.37
2022-10-31T05:13:43.171Z,62.27
2022-10-31T05:14:46.063Z,63.97
2022-10-31T05:15:44.164Z,62.43
2022-10-31T05:16:43.208Z,62.58
2022-10-31T05:17:43.139Z,61.28
2022-10-31T05:18:43.140Z,66.06
2022-10-31T05:19:44.108Z,68.34
2022-10-31T05:20:43.120Z,63.88
2022-10-31T05:21:43.124Z,62.17
2022-10-31T05:22:43.107Z,65.47
2022-10-31T05:23:45.941Z,62.65
2022-10-31T05:24:45.141Z,62.73
2022-10-31T05:25:43.094Z,62.68
2022-10-31T05:26:43.082Z,63.45
2022-10-31T05:27:43.070Z,66.61
2022-10-31T05:28:43.064Z,63.21
2022-10-31T05:29:43.055Z,63.68
2022-10-31T05:30:43.038Z,65.32
2022-10-31T05:31:43.030Z,63.55
2022-10-31T05:32:43.022Z,64.46
2022-10-31T05:33:43.028Z,63.87
2022-10-31T05:34:43.616Z,62.64
2022-10-31T05:35:43.001Z,63.76
2022-10-31T05:36:42.997Z,63.14
2022-10-31T05:37:42.982Z,63.68
2022-10-31T05:38:42.973Z,66.83
2022-10-31T05:39:44.610Z,68.14
2022-10-31T05:40:42.971Z,65.06
2022-10-31T05:41:43.528Z,61.90
2022-10-31T05:42:42.979Z,65.12
2022-10-31T05:43:42.955Z,64.39
2022-10-31T05:44:42.937Z,61.61
2022-10-31T05:45:42.920Z,63.94
2022-10-31T05:46:43.908Z,65.77
2022-10-31T05:47:44.533Z,64.13
2022-10-31T05:48:42.900Z,63.99
2022-10-31T05:49:42.903Z,62.77
2022-10-31T05:50:42.894Z,65.87
2022-10-31T05:51:42.889Z,65.10
2022-10-31T05:52:43.597Z,65.51
2022-10-31T05:53:43.859Z,67.94
2022-10-31T05:54:42.868Z,65.69
2022-10-31T05:55:42.849Z,65.74
2022-10-31T05:56:42.852Z,64.82
2022-10-31T05:57:42.831Z,65.89
2022-10-31T05:58:42.823Z,64.99
2022-10-31T05:59:43.841Z,63.38
2022-10-31T06:00:42.814Z,67.58
2022-10-31T06:01:42.891Z,63.96
2022-10-31T06:02:42.850Z,64.13
2022-10-31T06:03:42.817Z,64.96
2022-10-31T06:04:42.820Z,66.73
2022-10-31T06:05:43.539Z,66.17
2022-10-31T06:06:42.765Z,68.46
2022-10-31T06:07:42.765Z,66.00
2022-10-31T06:08:45.057Z,66.70
2022-10-31T06:09:46.611Z,67.79
2022-10-31T06:10:42.753Z,64.11
2022-10-31T06:11:42.718Z,66.84
2022-10-31T06:12:42.711Z,66.55
2022-10-31T06:13:43.540Z,65.90
2022-10-31T06:14:42.702Z,65.11
2022-10-31T06:15:42.709Z,66.77
2022-10-31T06:16:44.652Z,68.61
2022-10-31T06:17:47.544Z,65.12
2022-10-31T06:18:42.669Z,65.52
2022-10-31T06:19:42.778Z,67.63
2022-10-31T06:20:45.564Z,68.25
2022-10-31T21:29:45.698Z,58.33
2022-10-31T21:30:45.686Z,58.73
2022-10-31T21:31:45.674Z,59.87
2022-10-31T21:32:45.670Z,62.44
2022-10-31T21:33:45.662Z,59.41
2022-10-31T21:34:45.657Z,63.45
2022-10-31T21:35:45.656Z,61.64
2022-10-31T21:36:45.644Z,61.39
2022-10-31T21:37:45.630Z,62.59
2022-10-31T21:38:45.619Z,58.72
2022-10-31T21:39:50.464Z,57.90
2022-10-31T21:40:46.631Z,57.61
2022-10-31T21:41:45.597Z,59.96
2022-10-31T21:42:45.586Z,53.12
2022-10-31T21:43:45.587Z,58.76
2022-10-31T21:44:45.618Z,61.66
2022-10-31T21:45:45.562Z,56.76
2022-10-31T21:46:45.551Z,57.29
2022-10-31T21:47:45.547Z,56.22
2022-10-31T21:48:46.648Z,50.97
2022-10-31T21:49:46.623Z,54.36
2022-10-31T21:50:46.620Z,61.37
2022-10-31T21:51:46.612Z,59.92
2022-10-31T21:52:46.600Z,56.09
2022-10-31T21:53:46.603Z,56.91
2022-10-31T21:54:48.567Z,53.84
2022-10-31T21:55:46.579Z,61.15
2022-10-31T21:56:46.566Z,59.07
2022-10-31T21:57:47.564Z,58.00
2022-10-31T21:58:46.591Z,62.37
2022-10-31T21:59:46.552Z,55.20
2022-10-31T22:00:46.598Z,55.08
2022-10-31T22:01:46.683Z,53.22
2022-10-31T22:02:46.576Z,54.49
2022-10-31T22:03:46.519Z,53.87
2022-10-31T22:04:46.562Z,59.36
2022-10-31T22:05:46.523Z,57.63
2022-10-31T22:06:48.092Z,57.73
2022-10-31T22:07:50.156Z,59.22
2022-10-31T22:08:46.490Z,58.98
2022-10-31T22:09:48.578Z,53.35
2022-10-31T22:10:48.099Z,60.25
2022-10-31T22:11:47.086Z,59.34
2022-10-31T22:12:52.635Z,59.19
2022-10-31T22:13:46.457Z,57.58
2022-10-31T22:14:46.467Z,49.16
2022-10-31T22:15:50.365Z,56.39
2022-10-31T22:16:48.151Z,58.85
2022-10-31T22:17:46.418Z,57.27
2022-10-31T22:18:46.400Z,60.51
2022-10-31T22:19:46.397Z,55.69
2022-10-31T22:20:46.393Z,60.06
2022-10-31T22:21:47.088Z,56.89
2022-10-31T22:22:46.370Z,58.04
2022-10-31T22:25:55.609Z,56.14
2022-10-31T22:26:58.475Z,55.74
2022-10-31T22:27:58.627Z,62.13
2022-10-31T22:28:55.610Z,60.74
2022-10-31T22:29:59.393Z,55.69
2022-10-31T22:30:55.558Z,59.62
2022-10-31T22:31:59.633Z,53.07
2022-10-31T22:32:56.522Z,57.10
2022-10-31T22:33:56.561Z,52.83
2022-10-31T22:34:55.518Z,60.35
2022-10-31T22:35:55.546Z,61.71
2022-10-31T22:36:55.505Z,58.80
2022-10-31T22:37:55.492Z,61.24
2022-10-31T22:38:55.487Z,58.45
2022-10-31T22:39:55.466Z,52.39
2022-10-31T22:40:58.445Z,56.11
2022-10-31T22:41:55.470Z,56.83
2022-10-31T22:42:55.454Z,61.25
2022-10-31T22:43:55.453Z,60.02
2022-10-31T22:44:55.440Z,57.36
2022-10-31T22:45:55.432Z,57.80
2022-10-31T22:46:55.435Z,60.08
2022-10-31T22:47:55.431Z,57.55
2022-10-31T22:48:55.418Z,56.46
2022-10-31T22:49:55.404Z,57.92
2022-10-31T22:50:56.386Z,55.94
2022-10-31T22:51:55.395Z,61.57
2022-10-31T22:52:55.375Z,49.14
2022-10-31T22:53:55.378Z,62.13
2022-10-31T22:54:58.388Z,59.09
2022-10-31T22:55:56.354Z,56.05
2022-10-31T22:56:55.355Z,55.10
2022-10-31T22:57:55.345Z,56.83
2022-10-31T22:58:56.338Z,55.58
2022-10-31T22:59:55.335Z,56.08
2022-10-31T23:00:55.911Z,54.97
2022-10-31T23:01:55.478Z,52.27
2022-10-31T23:02:55.881Z,58.08
2022-10-31T23:03:56.006Z,57.59
2022-10-31T23:04:55.284Z,57.17
2022-10-31T23:05:55.278Z,55.79
2022-10-31T23:06:55.266Z,56.95
2022-10-31T23:07:55.274Z,59.40
2022-10-31T23:08:55.254Z,58.79
2022-10-31T23:09:55.248Z,57.16
2022-10-31T23:10:55.966Z,58.36
2022-10-31T23:11:55.229Z,59.20
2022-10-31T23:12:55.235Z,60.72
2022-10-31T23:13:55.223Z,54.40
2022-10-31T23:14:55.207Z,57.69
2022-10-31T23:15:55.215Z,60.34
2022-10-31T23:16:55.190Z,59.24
2022-10-31T23:17:55.195Z,59.88
2022-10-31T23:18:55.180Z,56.87
2022-10-31T23:19:55.888Z,59.33
2022-10-31T23:20:55.156Z,62.15
2022-10-31T23:21:55.386Z,59.37
2022-10-31T23:22:55.152Z,55.11
2022-10-31T23:23:55.881Z,56.85
2022-10-31T23:24:55.130Z,51.62
2022-10-31T23:25:55.119Z,56.11
2022-10-31T23:26:55.115Z,54.13
2022-10-31T23:27:55.108Z,60.35
2022-10-31T23:28:55.161Z,60.35
2022-10-31T23:29:55.090Z,54.04
2022-10-31T23:30:55.888Z,59.58
2022-10-31T23:31:55.077Z,51.21
2022-10-31T23:32:55.069Z,49.49
2022-10-31T23:33:55.065Z,54.29
2022-10-31T23:34:55.056Z,53.45
2022-10-31T23:35:55.045Z,58.00
2022-10-31T23:36:55.087Z,54.26
2022-10-31T23:37:56.033Z,57.95
2022-10-31T23:38:55.022Z,51.89
2022-10-31T23:39:55.024Z,53.68
2022-10-31T23:40:55.011Z,54.86
2022-10-31T23:41:55.000Z,50.99
2022-10-31T23:42:54.989Z,50.21
2022-10-31T23:43:56.893Z,58.31
2022-10-31T23:44:54.999Z,54.63
2022-10-31T23:45:54.964Z,50.78
2022-10-31T23:46:54.952Z,50.16
2022-10-31T23:47:54.964Z,52.01
2022-10-31T23:48:54.939Z,55.33
2022-10-31T23:49:54.948Z,55.60
2022-10-31T23:50:54.925Z,53.71
2022-10-31T23:51:54.912Z,57.16
2022-10-31T23:52:54.908Z,53.49
2022-10-31T23:53:59.478Z,48.04
2022-10-31T23:54:54.974Z,46.11
2022-10-31T23:55:54.893Z,49.28
2022-10-31T23:56:54.884Z,55.99
2022-10-31T23:57:54.874Z,52.01
2022-10-31T23:58:54.874Z,56.34
2022-10-31T23:59:54.865Z,52.05
